Time;durP1;ratioP1;P1;durP2;ratioP2;P2;SDS_P1;SDS_P2;PMS_P1;PMS_P2;Temp;Humidity;BMP_temperature;BMP_pressure;BME280_temperature;BME280_humidity;BME280_pressure;Samples;Min_cycle;Max_cycle;Signal;HPM_P1;HPM_P2
2023/04/10 02:47:42;;;;;;;33.40;23.85;;;;;;;;;;5109809;27;20565;-71
2023/04/10 02:50:10;;;;;;;27.15;17.38;;;;;;;;;;5110454;28;20027;-72
2023/04/10 02:52:36;;;;;;;27.48;18.15;;;29.10;99.90;;;;;;5110278;28;20103;-69
2023/04/10 02:55:03;;;;;;;1400.85;999.90;;;29.30;99.90;;;;;;5110120;28;20091;-68
2023/04/10 02:57:30;;;;;;;279.00;202.95;;;;;;;;;;5110353;28;20031;-70
2023/04/10 02:59:57;;;;;;;130.20;87.38;;;;;;;;;;5110384;28;20533;-70
2023/04/10 03:02:23;;;;;;;77.65;52.28;;;;;;;;;;5111046;28;20490;-70
2023/04/10 03:04:52;;;;;;;55.83;30.85;;;30.00;99.90;;;;;;5110963;28;20384;-69
2023/04/10 03:07:18;;;;;;;89.68;48.75;;;;;;;;;;5104026;28;20078;-70
2023/04/10 03:09:45;;;;;;;77.18;48.60;;;;;;;;;;5097295;28;20469;-70
2023/04/10 03:12:11;;;;;;;129.13;69.30;;;30.30;99.90;;;;;;5090447;28;20024;-69
2023/04/10 03:14:39;;;;;;;257.25;151.27;;;30.40;99.90;;;;;;5090247;28;20024;-70
2023/04/10 03:17:06;;;;;;;379.08;276.73;;;30.50;99.90;;;;;;5090182;28;20077;-69
2023/04/10 03:19:32;;;;;;;173.48;103.45;;;30.60;99.90;;;;;;5090248;28;20039;-70
2023/04/10 03:21:59;;;;;;;131.70;72.38;;;30.80;99.90;;;;;;5090025;28;20024;-69
2023/04/10 03:24:26;;;;;;;208.35;91.47;;;30.80;99.90;;;;;;5090243;28;20029;-70
2023/04/10 03:26:52;;;;;;;511.02;264.83;;;30.90;99.90;;;;;;5089868;28;20477;-70
2023/04/10 03:29:19;;;;;;;65.75;37.60;;;30.80;99.90;;;;;;5089921;28;20028;-69
2023/04/10 03:31:46;;;;;;;83.65;48.47;;;30.80;99.90;;;;;;5107357;28;20016;-69
2023/04/10 03:34:12;;;;;;;47.28;29.48;;;30.80;99.90;;;;;;5110092;28;20023;-70
2023/04/10 03:36:39;;;;;;;292.23;169.73;;;30.90;99.90;;;;;;5110094;28;20031;-69
2023/04/10 03:39:05;;;;;;;99.10;45.75;;;30.80;99.90;;;;;;5094381;28;20029;-71
2023/04/10 03:41:32;;;;;;;476.83;374.33;;;30.90;99.90;;;;;;5089779;28;20028;-69
2023/04/10 03:44:02;;;;;;;24.73;17.30;;;30.80;99.90;;;;;;5090029;28;20473;-68
2023/04/10 03:46:28;;;;;;;20.13;15.73;;;30.80;99.90;;;;;;5089935;28;20048;-70
2023/04/10 03:48:55;;;;;;;19.90;15.20;;;30.90;99.90;;;;;;5089670;28;20020;-70
2023/04/10 03:51:23;;;;;;;21.85;16.75;;;30.90;99.90;;;;;;5089540;28;20050;-71
2023/04/10 03:53:50;;;;;;;29.45;16.27;;;30.90;99.90;;;;;;5089511;28;20089;-72
2023/04/10 03:56:16;;;;;;;20.77;16.77;;;30.90;99.90;;;;;;5089753;28;20028;-69
2023/04/10 03:58:43;;;;;;;24.98;20.13;;;31.10;99.90;;;;;;5071332;28;20082;-68
2023/04/10 04:01:10;;;;;;;20.50;16.13;;;31.30;99.90;;;;;;5056161;28;20110;-69
2023/04/10 04:03:36;;;;;;;23.35;15.82;;;31.40;99.90;;;;;;5056195;28;20071;-68
2023/04/10 04:06:03;;;;;;;35.97;21.92;;;31.50;99.90;;;;;;5055930;28;20071;-68
2023/04/10 04:08:29;;;;;;;105.10;90.43;;;31.50;99.90;;;;;;5055815;28;20016;-68
2023/04/10 04:10:56;;;;;;;25.17;17.80;;;31.50;99.90;;;;;;5056058;28;20013;-68
2023/04/10 04:13:24;;;;;;;23.42;18.38;;;31.50;99.90;;;;;;5055824;28;20048;-68
2023/04/10 04:15:50;;;;;;;20.50;16.63;;;31.50;99.90;;;;;;5055753;28;20027;-72
2023/04/10 04:18:17;;;;;;;38.78;24.50;;;31.50;99.90;;;;;;5062992;28;20108;-71
2023/04/10 04:20:43;;;;;;;23.83;15.70;;;31.60;99.90;;;;;;5075844;28;20027;-70
2023/04/10 04:23:10;;;;;;;19.55;14.90;;;31.70;99.90;;;;;;5075571;28;20024;-70
2023/04/10 04:25:37;;;;;;;19.40;15.18;;;31.80;99.90;;;;;;5073063;28;20025;-71
2023/04/10 04:28:03;;;;;;;17.58;14.48;;;31.80;99.90;;;;;;5075656;28;20023;-71
2023/04/10 04:30:30;;;;;;;227.32;200.70;;;31.80;99.90;;;;;;5075651;28;20024;-70
2023/04/10 04:32:56;;;;;;;40.30;36.08;;;31.90;99.90;;;;;;5073008;28;20016;-69
2023/04/10 04:35:23;;;;;;;188.75;143.95;;;32.10;99.90;;;;;;5075774;28;20017;-72
2023/04/10 04:37:50;;;;;;;123.88;50.10;;;32.10;99.90;;;;;;5075406;28;20369;-73
2023/04/10 04:40:16;;;;;;;412.17;352.45;;;32.10;99.90;;;;;;5075641;28;20059;-72
2023/04/10 04:42:43;;;;;;;54.70;37.13;;;32.10;99.90;;;;;;5075811;28;20020;-70
2023/04/10 04:45:10;;;;;;;47.15;33.72;;;32.20;99.90;;;;;;5075541;28;20008;-70
2023/04/10 04:47:36;;;;;;;32.78;22.65;;;32.20;99.90;;;;;;5075205;28;20097;-70
2023/04/10 04:50:03;;;;;;;29.73;21.08;;;32.30;99.90;;;;;;5075492;28;20066;-71
2023/04/10 04:52:30;;;;;;;36.20;27.33;;;32.30;99.90;;;;;;5075202;28;20032;-70
2023/04/10 04:54:57;;;;;;;25.10;20.30;;;32.40;99.90;;;;;;5075414;28;20180;-70
2023/04/10 04:57:24;;;;;;;23.58;19.17;;;32.40;99.90;;;;;;5072657;28;20013;-71
2023/04/10 04:59:50;;;;;;;22.85;15.50;;;32.40;99.90;;;;;;5074969;28;20104;-70
2023/04/10 05:02:17;;;;;;;29.80;23.55;;;32.40;99.90;;;;;;5075263;28;20466;-69
2023/04/10 05:04:44;;;;;;;22.35;16.08;;;32.60;99.90;;;;;;5072406;28;20111;-69
2023/04/10 05:07:11;;;;;;;27.27;22.10;;;32.70;99.90;;;;;;5074752;28;20069;-70
2023/04/10 05:09:40;;;;;;;30.50;25.00;;;32.90;99.90;;;;;;5074101;28;20045;-69
2023/04/10 05:12:06;;;;;;;15.45;12.70;;;32.90;99.90;;;;;;5072457;28;20019;-69
2023/04/10 05:14:33;;;;;;;34.17;25.13;;;32.90;99.90;;;;;;5074865;28;20017;-68
2023/04/10 05:17:00;;;;;;;18.40;15.80;;;;;;;;;;5063579;28;20025;-69
2023/04/10 05:19:26;;;;;;;28.63;19.83;;;33.00;99.90;;;;;;5066086;28;20036;-71
2023/04/10 05:21:53;;;;;;;26.13;21.67;;;33.10;99.90;;;;;;5074118;28;20022;-72
2023/04/10 05:24:20;;;;;;;21.95;15.80;;;33.10;99.90;;;;;;5074551;28;20021;-72
2023/04/10 05:26:46;;;;;;;15.90;13.07;;;33.20;99.90;;;;;;5073781;28;20027;-71
2023/04/10 05:29:13;;;;;;;22.65;13.98;;;33.20;99.90;;;;;;5074465;28;20012;-70
2023/04/10 05:31:40;;;;;;;17.63;13.63;;;33.40;99.90;;;;;;5068893;28;20381;-71
2023/04/10 05:34:06;;;;;;;14.55;11.20;;;33.40;99.90;;;;;;5074390;28;20092;-71
2023/04/10 05:36:34;;;;;;;15.65;11.57;;;33.60;99.90;;;;;;5074147;28;20023;-70
2023/04/10 05:39:00;;;;;;;15.27;11.80;;;33.50;99.90;;;;;;5063149;28;20040;-74
2023/04/10 05:41:27;;;;;;;15.30;12.20;;;33.50;99.90;;;;;;5071134;28;20481;-72
2023/04/10 05:43:53;;;;;;;14.45;11.43;;;33.40;99.90;;;;;;5073803;28;20021;-72
2023/04/10 05:46:20;;;;;;;19.05;14.48;;;33.30;99.90;;;;;;5073286;28;20091;-73
2023/04/10 05:48:47;;;;;;;17.05;13.32;;;33.20;99.90;;;;;;5073497;28;20092;-72
2023/04/10 05:51:14;;;;;;;16.58;12.77;;;33.30;99.90;;;;;;5073706;28;20058;-73
2023/04/10 05:53:40;;;;;;;13.27;11.70;;;33.30;99.90;;;;;;5073678;28;20048;-72
2023/04/10 05:56:07;;;;;;;14.82;11.93;;;33.30;99.90;;;;;;5073466;28;20111;-73
2023/04/10 05:58:34;;;;;;;16.23;12.07;;;33.40;99.90;;;;;;5073890;28;20016;-70
2023/04/10 06:01:00;;;;;;;15.90;13.20;;;33.40;99.90;;;;;;5073581;28;20032;-71
2023/04/10 06:03:29;;;;;;;20.65;14.88;;;33.30;99.90;;;;;;5073533;28;20100;-70
2023/04/10 06:05:57;;;;;;;15.18;12.88;;;33.30;99.90;;;;;;5073475;28;20024;-71
2023/04/10 06:08:23;;;;;;;16.73;13.32;;;33.40;99.90;;;;;;5070914;28;20040;-71
2023/04/10 06:10:50;;;;;;;18.05;13.95;;;33.30;99.90;;;;;;5072490;28;20012;-71
2023/04/10 06:13:16;;;;;;;17.73;13.30;;;33.30;99.90;;;;;;5073336;28;20377;-72
2023/04/10 06:15:43;;;;;;;22.85;13.52;;;33.20;99.90;;;;;;5070723;28;20024;-70
2023/04/10 06:18:10;;;;;;;24.20;13.35;;;33.30;99.90;;;;;;5073367;28;20013;-70
2023/04/10 06:20:36;;;;;;;20.08;14.80;;;33.30;99.90;;;;;;5063236;28;20020;-70
2023/04/10 06:23:03;;;;;;;19.52;14.05;;;33.20;99.90;;;;;;5072018;28;20482;-71
2023/04/10 06:25:30;;;;;;;18.73;13.18;;;33.20;99.90;;;;;;5072008;28;20040;-71
2023/04/10 06:27:56;;;;;;;21.67;13.93;;;33.10;99.90;;;;;;5072345;28;20063;-70
2023/04/10 06:30:23;;;;;;;19.38;14.55;;;33.20;99.90;;;;;;5072956;28;20021;-69
2023/04/10 06:32:50;;;;;;;13.95;12.18;;;33.40;99.90;;;;;;5072941;28;20028;-68
2023/04/10 06:35:16;;;;;;;13.23;11.68;;;33.40;99.90;;;;;;5075796;28;21065;-69
2023/04/10 06:37:43;;;;;;;18.25;12.50;;;33.40;99.90;;;;;;5064402;28;20029;-70
2023/04/10 06:40:10;;;;;;;14.40;11.10;;;33.50;99.90;;;;;;5073381;28;20024;-70
2023/04/10 06:42:37;;;;;;;768.40;694.30;;;33.70;99.90;;;;;;5079162;28;20027;-69
2023/04/10 06:45:04;;;;;;;40.22;20.08;;;33.80;99.90;;;;;;5069612;28;20020;-70
2023/04/10 06:47:31;;;;;;;16.05;11.68;;;34.00;99.90;;;;;;5064698;28;20044;-70
2023/04/10 06:49:57;;;;;;;16.10;13.85;;;34.00;99.90;;;;;;5066439;28;20273;-70
2023/04/10 06:52:24;;;;;;;18.23;12.00;;;34.10;99.90;;;;;;5063157;28;20024;-69
2023/04/10 06:54:50;;;;;;;18.13;11.93;;;34.20;99.90;;;;;;5069435;28;20094;-70
2023/04/10 06:57:17;;;;;;;18.58;12.63;;;34.10;99.90;;;;;;5073321;28;20025;-71
2023/04/10 06:59:44;;;;;;;25.13;15.05;;;33.90;99.90;;;;;;5068514;28;20027;-69
2023/04/10 07:02:11;;;;;;;18.25;13.27;;;33.80;99.90;;;;;;5073123;28;20027;-70
2023/04/10 07:04:37;;;;;;;15.98;12.10;;;34.00;99.90;;;;;;5062534;28;20103;-70
2023/04/10 07:07:08;;;;;;;16.33;12.13;;;34.00;99.90;;;;;;5072035;28;20059;-71
2023/04/10 07:09:35;;;;;;;16.45;10.77;;;34.00;99.90;;;;;;5077056;28;20393;-72
2023/04/10 07:12:01;;;;;;;19.23;11.27;;;33.90;99.90;;;;;;5073104;28;20024;-75
2023/04/10 07:14:28;;;;;;;23.67;15.65;;;33.80;99.90;;;;;;5072897;28;20540;-71
2023/04/10 07:16:54;;;;;;;23.45;13.93;;;33.80;99.90;;;;;;5073031;28;20028;-70
2023/04/10 07:19:21;;;;;;;19.05;12.48;;;33.80;99.90;;;;;;5072722;28;20032;-72
2023/04/10 07:21:50;;;;;;;15.80;10.02;;;33.90;99.90;;;;;;5072658;28;20062;-71
2023/04/10 07:24:17;;;;;;;13.55;10.18;;;34.00;99.90;;;;;;5073471;28;20038;-71
2023/04/10 07:26:46;;;;;;;13.75;10.65;;;34.20;99.90;;;;;;5071365;28;20029;-73
2023/04/10 07:29:13;;;;;;;16.42;14.05;;;34.10;99.90;;;;;;5072511;28;20380;-67
2023/04/10 07:31:40;;;;;;;22.92;16.55;;;33.90;99.90;;;;;;5061468;28;20090;-69
2023/04/10 07:34:06;;;;;;;29.73;22.08;;;33.80;99.90;;;;;;5073162;28;20107;-70
2023/04/10 07:36:33;;;;;;;21.00;16.23;;;33.80;99.90;;;;;;5069831;28;20439;-69
2023/04/10 07:39:00;;;;;;;20.02;14.48;;;33.90;99.90;;;;;;5076084;28;20500;-71
2023/04/10 07:41:26;;;;;;;21.27;13.13;;;34.00;99.90;;;;;;5075724;28;20408;-71
2023/04/10 07:43:53;;;;;;;23.02;19.23;;;34.00;99.90;;;;;;5076382;28;20091;-68
2023/04/10 07:46:20;;;;;;;17.40;13.32;;;34.00;99.90;;;;;;5077080;28;20070;-70
2023/04/10 07:48:46;;;;;;;11.80;10.50;;;34.00;99.90;;;;;;5076858;28;20042;-73
2023/04/10 07:51:13;;;;;;;16.35;12.00;;;34.00;99.90;;;;;;5077170;28;20016;-73
2023/04/10 07:53:39;;;;;;;18.48;11.77;;;34.10;99.90;;;;;;5076099;28;20111;-72
2023/04/10 07:56:07;;;;;;;14.98;9.48;;;34.10;99.90;;;;;;5075604;28;20029;-69
2023/04/10 07:58:33;;;;;;;15.45;9.63;;;34.10;99.90;;;;;;5076287;28;20029;-70
2023/04/10 08:01:00;;;;;;;33.22;26.48;;;33.90;99.90;;;;;;5075483;28;20016;-69
2023/04/10 08:03:27;;;;;;;17.17;10.10;;;33.80;99.90;;;;;;5070756;28;20032;-70
2023/04/10 08:05:53;;;;;;;15.30;10.80;;;33.70;99.90;;;;;;5071043;28;20025;-70
2023/04/10 08:08:20;;;;;;;14.27;11.20;;;33.70;99.90;;;;;;5064235;28;20035;-70
2023/04/10 08:10:47;;;;;;;124.40;112.78;;;33.50;99.90;;;;;;5056252;28;20040;-70
2023/04/10 08:13:14;;;;;;;10.23;8.10;;;33.40;99.90;;;;;;5056322;28;20021;-70
2023/04/10 08:15:40;;;;;;;13.73;7.75;;;33.30;99.90;;;;;;5060987;28;20074;-70
2023/04/10 08:18:07;;;;;;;11.73;8.63;;;33.10;99.90;;;;;;5076266;28;20024;-75
2023/04/10 08:20:35;;;;;;;1251.93;999.90;;;33.10;99.90;;;;;;5076107;28;20025;-72
2023/04/10 08:23:03;;;;;;;1269.93;999.90;;;33.00;99.90;;;;;;5075497;28;20040;-70
2023/04/10 08:25:30;;;;;;;1385.40;999.90;;;32.90;99.90;;;;;;5075724;28;20050;-69
2023/04/10 08:27:58;;;;;;;1331.18;999.90;;;32.90;99.90;;;;;;5075740;28;20049;-70
2023/04/10 08:30:24;;;;;;;754.22;674.38;;;32.80;99.90;;;;;;5075557;28;20025;-72
2023/04/10 08:32:51;;;;;;;869.30;787.50;;;32.80;99.90;;;;;;5074330;28;20017;-70
2023/04/10 08:35:17;;;;;;;1082.47;964.88;;;32.80;99.90;;;;;;5062362;28;20095;-71
2023/04/10 08:37:44;;;;;;;596.13;531.03;;;32.70;99.90;;;;;;5071612;28;20021;-69
2023/04/10 08:40:11;;;;;;;1486.85;999.90;;;32.60;99.90;;;;;;5076096;28;20384;-70
2023/04/10 08:42:37;;;;;;;120.57;106.65;;;32.60;99.90;;;;;;5075852;28;20064;-70
2023/04/10 08:45:04;;;;;;;14.90;9.90;;;32.50;99.90;;;;;;5075899;28;20021;-70
2023/04/10 08:47:37;;;;;;;13.82;9.70;;;32.50;99.90;;;;;;5075496;28;20062;-70
2023/04/10 08:50:10;;;;;;;296.30;261.42;;;32.50;99.90;;;;;;5073049;28;20035;-70
2023/04/10 08:52:39;;;;;;;18.38;12.93;;;32.50;99.90;;;;;;5076042;28;20373;-69
2023/04/10 08:55:08;;;;;;;16.20;11.32;;;32.50;99.90;;;;;;5075931;28;20013;-71
2023/04/10 08:57:37;;;;;;;14.23;10.70;;;32.50;99.90;;;;;;5075118;28;20108;-71
2023/04/10 09:00:05;;;;;;;13.15;10.52;;;32.50;99.90;;;;;;5075735;28;20032;-71
2023/04/10 09:02:32;;;;;;;17.17;12.02;;;32.40;99.90;;;;;;5075445;28;20032;-71
2023/04/10 09:05:01;;;;;;;16.73;12.73;;;32.40;99.90;;;;;;5071685;28;20027;-71
2023/04/10 09:07:28;;;;;;;18.48;13.65;;;32.40;99.90;;;;;;5069863;28;20029;-72
2023/04/10 09:09:56;;;;;;;17.77;12.75;;;32.40;99.90;;;;;;5064628;28;20373;-67
2023/04/10 09:12:22;;;;;;;85.20;76.05;;;32.40;99.90;;;;;;5076655;28;20039;-71
2023/04/10 09:14:52;;;;;;;16.10;11.63;;;32.40;99.90;;;;;;5073182;28;20473;-70
2023/04/10 09:17:21;;;;;;;17.40;12.30;;;32.50;99.90;;;;;;5074708;28;20127;-70
2023/04/10 09:19:52;;;;;;;14.40;11.02;;;32.40;99.90;;;;;;5073322;28;20475;-70
2023/04/10 09:22:30;;;;;;;18.27;12.60;;;32.50;99.90;;;;;;5069153;28;20052;-72
2023/04/10 09:24:59;;;;;;;23.00;16.90;;;32.50;99.90;;;;;;5069714;28;20021;-72
2023/04/10 09:27:39;;;;;;;18.42;13.48;;;32.50;99.90;;;;;;5074822;28;20162;-73
2023/04/10 09:30:07;;;;;;;21.67;13.88;;;32.40;99.90;;;;;;5073004;28;20091;-71
2023/04/10 09:32:41;;;;;;;24.38;13.75;;;32.40;99.90;;;;;;5070145;28;20067;-72
2023/04/10 09:35:10;;;;;;;21.52;14.07;;;32.30;99.90;;;;;;5072871;28;20469;-76
2023/04/10 09:37:39;;;;;;;20.77;13.32;;;32.30;99.90;;;;;;5067560;28;20036;-75
2023/04/10 09:40:18;;;;;;;20.58;12.55;;;32.30;99.90;;;;;;5070170;28;20486;-71
2023/04/10 09:42:45;;;;;;;15.05;11.15;;;32.30;99.90;;;;;;5068296;28;20500;-70
2023/04/10 09:45:12;;;;;;;51.17;38.45;;;32.20;99.90;;;;;;5069130;28;20052;-71
2023/04/10 09:47:38;;;;;;;176.15;124.70;;;32.20;99.90;;;;;;5069260;28;20033;-72
2023/04/10 09:50:05;;;;;;;70.28;51.92;;;32.20;99.90;;;;;;5071639;28;20089;-72
2023/04/10 09:52:34;;;;;;;25.63;18.33;;;32.20;99.90;;;;;;5069141;28;20017;-71
2023/04/10 09:55:07;;;;;;;49.85;36.83;;;32.10;99.90;;;;;;5070621;28;20036;-69
2023/04/10 09:57:35;;;;;;;39.75;28.90;;;32.10;99.90;;;;;;5065690;28;20529;-70
2023/04/10 10:00:04;;;;;;;22.98;17.35;;;32.20;99.90;;;;;;5070262;28;20028;-71
2023/04/10 10:02:35;;;;;;;17.10;12.32;;;32.20;99.90;;;;;;5067612;28;20025;-73
2023/04/10 10:05:04;;;;;;;25.75;16.50;;;32.20;99.90;;;;;;5067778;28;20032;-70
2023/04/10 10:07:31;;;;;;;17.52;12.55;;;32.20;99.90;;;;;;5069709;28;20427;-68
2023/04/10 10:09:58;;;;;;;26.20;11.02;;;32.30;99.90;;;;;;5067327;28;20172;-70
2023/04/10 10:12:34;;;;;;;15.93;10.48;;;32.20;99.90;;;;;;5062920;28;20017;-70
2023/04/10 10:15:08;;;;;;;16.85;10.90;;;32.10;99.90;;;;;;5068627;28;20029;-70
2023/04/10 10:17:55;;;;;;;16.33;9.93;;;32.10;99.90;;;;;;5067401;28;20028;-68
2023/04/10 10:20:24;;;;;;;19.38;10.32;;;32.00;99.90;;;;;;5069759;28;20029;-73
2023/04/10 10:22:51;;;;;;;14.43;9.18;;;31.90;99.90;;;;;;5071297;28;20028;-69
2023/04/10 10:25:21;;;;;;;14.73;9.93;;;31.90;99.90;;;;;;5070102;28;20395;-69
2023/04/10 10:27:51;;;;;;;17.58;10.05;;;31.80;99.90;;;;;;5068676;28;20032;-70
2023/04/10 10:30:18;;;;;;;18.35;10.48;;;31.80;99.90;;;;;;5062679;28;20470;-70
2023/04/10 10:32:46;;;;;;;16.33;10.35;;;31.90;99.90;;;;;;5065637;28;20016;-72
2023/04/10 10:35:13;;;;;;;18.60;10.43;;;31.90;99.90;;;;;;5071244;28;20027;-75
2023/04/10 10:37:41;;;;;;;19.77;10.88;;;31.90;99.90;;;;;;5072122;28;20111;-73
2023/04/10 10:40:14;;;;;;;15.25;9.90;;;31.90;99.90;;;;;;5070460;28;20032;-75
2023/04/10 10:43:02;;;;;;;19.38;11.65;;;31.80;99.90;;;;;;5074141;28;20117;-74
2023/04/10 10:45:36;;;;;;;24.70;13.43;;;31.70;99.90;;;;;;5072126;28;20070;-75
2023/04/10 10:48:03;;;;;;;21.00;11.90;;;31.70;99.90;;;;;;5073792;28;20052;-73
2023/04/10 10:50:53;;;;;;;16.13;10.90;;;31.60;99.90;;;;;;5073556;28;20113;-74
2023/04/10 10:53:43;;;;;;;14.88;10.02;;;31.40;99.90;;;;;;5072176;28;20025;-73
2023/04/10 10:56:18;;;;;;;14.43;10.05;;;31.40;99.90;;;;;;5059705;28;20032;-73
2023/04/10 10:58:49;;;;;;;16.73;12.15;;;31.40;99.90;;;;;;5066583;28;20424;-73
2023/04/10 11:01:17;;;;;;;22.23;14.20;;;31.40;99.90;;;;;;5074082;28;20473;-73
2023/04/10 11:03:44;;;;;;;23.35;14.55;;;31.50;99.90;;;;;;5070625;28;20464;-74
2023/04/10 11:06:18;;;;;;;22.65;14.88;;;31.50;99.90;;;;;;5073668;28;20052;-77
2023/04/10 11:08:45;;;;;;;22.80;15.65;;;31.50;99.90;;;;;;5076701;28;20016;-75
2023/04/10 11:11:26;;;;;;;52.22;32.03;;;31.40;99.90;;;;;;5076327;28;20025;-72
2023/04/10 11:13:55;;;;;;;39.03;24.70;;;31.40;99.90;;;;;;5077285;28;20026;-74
2023/04/10 11:16:40;;;;;;;29.10;18.95;;;31.30;99.90;;;;;;5075311;28;20025;-75
2023/04/10 11:19:11;;;;;;;24.08;14.40;;;31.30;99.90;;;;;;5059093;28;20025;-74
2023/04/10 11:21:58;;;;;;;23.83;14.27;;;31.20;99.90;;;;;;5057761;28;20540;-73
2023/04/10 11:24:25;;;;;;;29.92;17.90;;;31.20;99.90;;;;;;5057537;28;20082;-75
2023/04/10 11:26:52;;;;;;;31.63;20.60;;;31.20;99.90;;;;;;5075283;28;20035;-70
2023/04/10 11:29:32;;;;;;;28.45;17.90;;;31.20;99.90;;;;;;5075399;28;20020;-74
2023/04/10 11:32:03;;;;;;;22.70;14.98;;;31.20;99.90;;;;;;5073580;28;20020;-73
2023/04/10 11:34:31;;;;;;;34.03;18.33;;;31.10;99.90;;;;;;5073449;28;20061;-73
2023/04/10 11:37:01;;;;;;;24.67;16.95;;;31.10;99.90;;;;;;5071634;28;20139;-74
2023/04/10 11:39:30;;;;;;;22.63;16.10;;;31.10;99.90;;;;;;5074901;28;20070;-74
2023/04/10 11:41:57;;;;;;;27.05;15.38;;;31.20;99.90;;;;;;5076460;28;20028;-73
2023/04/10 11:44:34;;;;;;;18.92;13.95;;;31.10;99.90;;;;;;5067534;28;20048;-72
2023/04/10 11:47:01;;;;;;;25.30;15.40;;;31.10;99.90;;;;;;5074391;28;20183;-73
2023/04/10 11:49:31;;;;;;;20.95;14.93;;;31.10;99.90;;;;;;5074313;28;20016;-73
2023/04/10 11:51:58;;;;;;;25.70;14.38;;;31.00;99.90;;;;;;5074760;28;20062;-75
2023/04/10 11:54:26;;;;;;;25.25;17.00;;;31.00;99.90;;;;;;5074448;28;20255;-74
2023/04/10 11:56:57;;;;;;;24.45;15.60;;;31.00;99.90;;;;;;5074394;28;20032;-73
2023/04/10 11:59:24;;;;;;;28.90;16.33;;;30.90;99.90;;;;;;5067321;28;20099;-77
2023/04/10 12:01:53;;;;;;;27.17;17.50;;;30.90;99.90;;;;;;5068590;28;20056;-75
2023/04/10 12:04:22;;;;;;;31.13;18.50;;;30.90;99.90;;;;;;5076129;28;20024;-74
2023/04/10 12:06:55;;;;;;;27.67;18.40;;;30.90;99.90;;;;;;5079629;28;20035;-74
2023/04/10 12:09:23;;;;;;;28.58;17.42;;;30.90;99.90;;;;;;5074436;28;20024;-74
2023/04/10 12:11:50;;;;;;;32.15;18.48;;;30.90;99.90;;;;;;5073348;28;20021;-73
2023/04/10 12:14:18;;;;;;;29.15;18.20;;;30.70;99.90;;;;;;5073941;28;20013;-73
2023/04/10 12:16:45;;;;;;;33.42;18.92;;;30.70;99.90;;;;;;5072771;28;20031;-73
2023/04/10 12:19:13;;;;;;;33.50;18.30;;;30.70;99.90;;;;;;5074512;28;20016;-74
2023/04/10 12:21:41;;;;;;;28.48;17.80;;;30.60;99.90;;;;;;5064848;28;20033;-74
2023/04/10 12:24:08;;;;;;;34.03;18.73;;;30.60;99.90;;;;;;5073246;28;20074;-75
2023/04/10 12:26:35;;;;;;;29.25;18.42;;;30.70;99.90;;;;;;5073864;28;20021;-75
2023/04/10 12:29:02;;;;;;;28.98;18.08;;;30.70;99.90;;;;;;5073433;28;20047;-74
2023/04/10 12:31:32;;;;;;;34.28;17.80;;;30.70;99.90;;;;;;5073532;28;20031;-74
2023/04/10 12:34:00;;;;;;;35.60;19.52;;;30.60;99.90;;;;;;5074037;28;20020;-74
2023/04/10 12:36:28;;;;;;;32.38;19.77;;;30.60;99.90;;;;;;5071871;28;20042;-73
2023/04/10 12:38:56;;;;;;;36.33;21.70;;;30.60;99.90;;;;;;5073204;28;20024;-72
2023/04/10 12:41:25;;;;;;;38.08;22.35;;;30.50;99.90;;;;;;5071416;28;20027;-73
2023/04/10 12:44:05;;;;;;;40.60;23.73;;;30.40;99.90;;;;;;5072597;28;20021;-73
2023/04/10 12:46:32;;;;;;;30.55;18.77;;;30.50;99.90;;;;;;5072385;28;20051;-74
2023/04/10 12:49:09;;;;;;;29.02;17.55;;;30.40;99.90;;;;;;5074253;28;20047;-74
2023/04/10 12:51:48;;;;;;;34.97;19.35;;;30.40;99.90;;;;;;5072682;28;20036;-74
2023/04/10 12:54:36;;;;;;;31.60;18.55;;;30.40;99.90;;;;;;5072509;28;20119;-73
2023/04/10 12:57:03;;;;;;;39.25;21.40;;;30.40;99.90;;;;;;5068297;28;20583;-72
2023/04/10 12:59:30;;;;;;;40.15;21.60;;;30.40;99.90;;;;;;5062643;28;20047;-72
2023/04/10 13:01:57;;;;;;;39.38;21.92;;;30.40;99.90;;;;;;5064280;28;20029;-73
2023/04/10 13:04:23;;;;;;;43.22;21.45;;;30.50;99.90;;;;;;5071297;28;20090;-74
2023/04/10 13:06:53;;;;;;;45.15;21.00;;;30.50;99.90;;;;;;5074093;28;20067;-73
2023/04/10 13:09:19;;;;;;;44.65;21.30;;;30.50;99.90;;;;;;5062664;28;20295;-73
2023/04/10 13:11:46;;;;;;;41.40;21.65;;;30.40;99.90;;;;;;5073376;28;20039;-72
2023/04/10 13:14:16;;;;;;;41.05;22.50;;;30.40;99.90;;;;;;5071242;28;20024;-72
2023/04/10 13:16:43;;;;;;;44.67;21.13;;;30.40;99.90;;;;;;5070659;28;20036;-72
2023/04/10 13:19:09;;;;;;;36.42;18.40;;;30.40;99.90;;;;;;5070783;28;20481;-74
2023/04/10 13:21:36;;;;;;;33.53;19.77;;;30.40;99.90;;;;;;5072565;28;20170;-73
2023/04/10 13:24:02;;;;;;;30.98;19.67;;;30.00;99.90;;;;;;5072393;28;20107;-74
2023/04/10 13:26:29;;;;;;;35.30;21.63;;;30.10;99.90;;;;;;5070658;28;20028;-72
2023/04/10 13:28:56;;;;;;;45.03;26.58;;;30.20;99.90;;;;;;5072397;28;20031;-72
2023/04/10 13:31:23;;;;;;;44.25;26.17;;;30.30;99.90;;;;;;5071517;28;20016;-73
2023/04/10 13:33:49;;;;;;;50.80;27.67;;;30.30;99.90;;;;;;5070545;28;20461;-72
2023/04/10 13:36:16;;;;;;;49.65;26.08;;;30.30;99.90;;;;;;5072313;28;20028;-75
2023/04/10 13:38:42;;;;;;;42.40;25.17;;;30.30;99.90;;;;;;5072483;28;20013;-73
2023/04/10 13:41:09;;;;;;;44.83;26.05;;;30.30;99.90;;;;;;5070324;28;20028;-71
2023/04/10 13:43:36;;;;;;;42.72;25.98;;;30.30;99.90;;;;;;5072523;28;20029;-73
2023/04/10 13:46:03;;;;;;;46.60;28.10;;;30.30;99.90;;;;;;5070245;28;20044;-73
2023/04/10 13:48:30;;;;;;;48.47;26.92;;;30.30;99.90;;;;;;5070446;28;20028;-69
2023/04/10 13:50:57;;;;;;;45.20;26.42;;;30.30;99.90;;;;;;5070416;28;20527;-70
2023/04/10 13:53:24;;;;;;;48.35;27.48;;;30.20;99.90;;;;;;5070213;28;20066;-72
2023/04/10 13:55:50;;;;;;;50.03;27.02;;;30.20;99.90;;;;;;5071150;28;20033;-72
2023/04/10 13:58:17;;;;;;;51.30;29.40;;;30.20;99.90;;;;;;5071303;28;20099;-71
2023/04/10 14:00:44;;;;;;;49.28;28.00;;;30.30;99.90;;;;;;5071216;28;20225;-72
2023/04/10 14:03:11;;;;;;;56.05;31.00;;;30.30;99.90;;;;;;5069942;28;20044;-71
2023/04/10 14:05:39;;;;;;;56.58;32.72;;;30.30;99.90;;;;;;5071221;28;20020;-72
2023/04/10 14:08:10;;;;;;;56.95;31.80;;;30.30;99.90;;;;;;5071732;28;20013;-72
2023/04/10 14:10:38;;;;;;;65.50;35.63;;;30.20;99.90;;;;;;5071750;28;20013;-71
2023/04/10 14:13:05;;;;;;;75.90;41.55;;;30.30;99.90;;;;;;5071797;28;20017;-73
2023/04/10 14:15:32;;;;;;;75.22;41.80;;;30.30;99.90;;;;;;5052519;22;20414;-72
2023/04/10 14:17:59;;;;;;;79.95;45.78;;;30.20;99.90;;;;;;5032186;28;20026;-73
2023/04/10 14:20:25;;;;;;;72.32;40.25;;;30.10;99.90;;;;;;5032002;28;20297;-72
2023/04/10 14:22:55;;;;;;;69.82;37.95;;;30.10;99.90;;;;;;5030229;28;20540;-72
2023/04/10 14:25:22;;;;;;;65.55;36.45;;;30.10;99.90;;;;;;5030832;28;20467;-71
2023/04/10 14:27:48;;;;;;;66.35;40.10;;;30.00;99.90;;;;;;5032614;28;20025;-72
2023/04/10 14:30:15;;;;;;;83.80;46.47;;;30.00;99.90;;;;;;5032785;28;20083;-72
2023/04/10 14:32:42;;;;;;;69.80;38.97;;;30.00;99.90;;;;;;5034142;28;20018;-71
2023/04/10 14:35:09;;;;;;;88.45;45.90;;;30.00;99.90;;;;;;5033818;28;20378;-71
2023/04/10 14:37:36;;;;;;;102.65;59.67;;;30.10;99.90;;;;;;5033277;28;20137;-71
2023/04/10 14:40:04;;;;;;;90.03;51.17;;;30.20;99.90;;;;;;5033477;28;20475;-70
2023/04/10 14:42:31;;;;;;;72.30;42.80;;;30.20;99.90;;;;;;5033552;28;20029;-70
2023/04/10 14:44:58;;;;;;;70.00;39.58;;;30.10;99.90;;;;;;5033421;28;20018;-71
2023/04/10 14:47:25;;;;;;;86.50;43.70;;;30.10;99.90;;;;;;5033238;28;20291;-70
2023/04/10 14:49:51;;;;;;;82.95;41.42;;;30.00;99.90;;;;;;5033451;28;20029;-70
2023/04/10 14:52:18;;;;;;;70.45;35.92;;;29.90;99.90;;;;;;5033090;28;20021;-69
2023/04/10 14:54:44;;;;;;;69.85;32.17;;;29.80;99.90;;;;;;5033176;28;20088;-70
2023/04/10 14:57:11;;;;;;;61.95;32.80;;;29.70;99.90;;;;;;5033255;28;20087;-71
2023/04/10 14:59:38;;;;;;;65.55;33.65;;;29.70;99.90;;;;;;5033129;28;20049;-71
2023/04/10 15:02:04;;;;;;;70.70;32.33;;;29.60;99.90;;;;;;5033161;28;20108;-70
2023/04/10 15:04:31;;;;;;;80.10;35.45;;;29.60;99.90;;;;;;5033178;28;20108;-70
2023/04/10 15:06:57;;;;;;;80.05;34.65;;;29.50;99.90;;;;;;5033048;28;20044;-71
2023/04/10 15:09:24;;;;;;;82.78;35.13;;;29.70;99.90;;;;;;5033032;28;20020;-70
2023/04/10 15:11:51;;;;;;;71.53;33.67;;;29.70;99.90;;;;;;5033146;28;20032;-71
2023/04/10 15:14:17;;;;;;;64.55;30.70;;;29.60;99.90;;;;;;5031652;28;20069;-71
2023/04/10 15:16:44;;;;;;;61.75;31.58;;;29.50;99.90;;;;;;5032901;28;20466;-71
2023/04/10 15:19:10;;;;;;;54.30;29.52;;;29.70;99.90;;;;;;5033075;28;20048;-71